createdAt,value
2019-06-20T00:01:13.898Z,6.80
2019-06-20T00:03:42.680Z,6.90
2019-06-20T00:06:11.386Z,6.35
2019-06-20T00:08:40.050Z,6.33
2019-06-20T00:11:08.942Z,6.05
2019-06-20T00:13:37.736Z,6.22
2019-06-20T00:16:06.297Z,5.87
2019-06-20T00:18:34.902Z,6.00
2019-06-20T00:21:03.588Z,6.17
2019-06-20T00:23:32.166Z,6.28
2019-06-20T00:26:00.770Z,5.83
2019-06-20T00:28:29.252Z,6.08
2019-06-20T00:30:58.011Z,6.03
2019-06-20T00:33:26.922Z,6.35
2019-06-20T00:35:55.509Z,6.28
2019-06-20T00:38:24.189Z,5.95
2019-06-20T00:40:52.741Z,5.92
2019-06-20T00:43:21.326Z,5.78
2019-06-20T00:45:50.743Z,6.05
2019-06-20T00:48:19.327Z,6.08
2019-06-20T00:50:47.801Z,5.75
2019-06-20T00:53:16.358Z,6.05
2019-06-20T00:55:44.962Z,5.80
2019-06-20T00:58:13.564Z,5.35
2019-06-20T01:00:42.115Z,4.85
2019-06-20T01:03:10.717Z,5.08
2019-06-20T01:05:39.391Z,5.33
2019-06-20T01:08:08.300Z,5.17
2019-06-20T01:10:37.175Z,5.50
2019-06-20T01:13:06.000Z,5.60
2019-06-20T01:15:34.565Z,5.90
2019-06-20T01:18:03.149Z,5.40
2019-06-20T01:20:31.862Z,5.28
2019-06-20T01:23:00.409Z,5.30
2019-06-20T01:25:30.516Z,4.95
2019-06-20T01:27:59.297Z,5.12
2019-06-20T01:30:27.883Z,5.30
2019-06-20T01:32:56.547Z,4.70
2019-06-20T01:35:25.063Z,5.15
2019-06-20T01:37:53.755Z,5.65
2019-06-20T01:40:22.337Z,5.70
2019-06-20T01:42:50.906Z,6.03
2019-06-20T01:45:19.499Z,6.58
2019-06-20T01:47:48.075Z,6.67
2019-06-20T01:50:16.644Z,6.70
2019-06-20T01:52:45.243Z,6.60
2019-06-20T01:55:13.797Z,6.78
2019-06-20T01:57:42.530Z,6.70
2019-06-20T02:00:11.523Z,6.67
2019-06-20T02:02:40.079Z,7.08
2019-06-20T02:05:08.878Z,7.25
2019-06-20T02:07:37.449Z,7.00
2019-06-20T02:10:06.717Z,6.83
2019-06-20T02:12:35.262Z,7.50
2019-06-20T02:15:04.439Z,7.55
2019-06-20T02:17:33.111Z,7.85
2019-06-20T02:20:01.579Z,7.42
2019-06-20T02:22:30.295Z,7.92
2019-06-20T02:24:58.857Z,7.42
2019-06-20T02:27:27.563Z,7.72
2019-06-20T02:29:56.132Z,7.45
2019-06-20T02:32:24.745Z,8.13
2019-06-20T02:34:53.423Z,8.53
2019-06-20T02:37:21.994Z,7.72
2019-06-20T02:39:50.554Z,7.55
2019-06-20T02:42:19.305Z,7.75
2019-06-20T02:44:48.753Z,7.92
2019-06-20T02:47:17.340Z,7.53
2019-06-20T02:49:45.927Z,7.80
2019-06-20T02:52:14.649Z,7.47
2019-06-20T02:54:43.308Z,7.42
2019-06-20T02:57:11.835Z,7.78
2019-06-20T02:59:40.356Z,8.60
2019-06-20T03:02:08.944Z,7.53
2019-06-20T03:04:37.631Z,7.97
2019-06-20T03:07:06.218Z,7.90
2019-06-20T03:09:34.797Z,7.45
2019-06-20T03:12:03.389Z,7.40
2019-06-20T03:14:44.595Z,8.05
2019-06-20T03:17:02.399Z,7.47
2019-06-20T03:19:30.965Z,7.65
2019-06-20T03:21:59.672Z,8.05
2019-06-20T03:24:28.239Z,7.85
2019-06-20T03:26:56.813Z,9.10
2019-06-20T03:29:25.432Z,7.15
2019-06-20T03:31:53.998Z,7.62
2019-06-20T03:34:22.669Z,7.33
2019-06-20T03:36:51.277Z,8.40
2019-06-20T03:39:19.790Z,8.48
2019-06-20T03:41:48.422Z,8.10
2019-06-20T03:44:17.117Z,8.45
2019-06-20T03:46:45.687Z,7.92
2019-06-20T03:49:15.417Z,8.93
2019-06-20T03:51:43.993Z,9.50
2019-06-20T03:54:13.076Z,9.05
2019-06-20T03:56:42.843Z,8.83
2019-06-20T03:59:11.373Z,8.83
2019-06-20T04:01:40.362Z,8.80
2019-06-20T04:04:08.932Z,8.38
2019-06-20T04:06:37.542Z,8.80
2019-06-20T04:09:06.442Z,8.33
2019-06-20T04:11:35.017Z,8.63
2019-06-20T04:14:03.694Z,8.70
2019-06-20T04:16:32.257Z,8.55
2019-06-20T04:19:00.841Z,8.00
2019-06-20T04:21:29.440Z,8.73
2019-06-20T04:23:58.019Z,8.65
2019-06-20T04:26:26.715Z,8.43
2019-06-20T04:28:55.490Z,8.60
2019-06-20T04:31:24.068Z,8.63
2019-06-20T04:33:52.661Z,7.83
2019-06-20T04:36:21.377Z,7.70
2019-06-20T04:38:50.107Z,8.53
2019-06-20T04:41:18.710Z,8.55
2019-06-20T04:43:47.327Z,8.50
2019-06-20T04:46:26.839Z,8.90
2019-06-20T04:48:55.450Z,8.58
2019-06-20T04:51:24.125Z,9.08
2019-06-20T04:53:52.684Z,8.25
2019-06-20T04:56:21.392Z,8.53
2019-06-20T04:58:49.950Z,8.10
2019-06-20T05:01:18.538Z,7.85
2019-06-20T05:03:47.113Z,7.83
2019-06-20T05:06:15.707Z,7.40
2019-06-20T05:08:44.388Z,7.75
2019-06-20T05:11:12.981Z,8.03
2019-06-20T05:13:41.519Z,7.60
2019-06-20T05:16:10.152Z,7.62
2019-06-20T05:18:38.734Z,8.18
2019-06-20T05:21:07.648Z,7.25
2019-06-20T05:23:36.330Z,6.85
2019-06-20T05:26:04.856Z,6.92
2019-06-20T05:28:33.471Z,7.20
2019-06-20T05:31:02.379Z,6.75
2019-06-20T05:33:30.953Z,6.85
2019-06-20T05:35:59.631Z,5.42
2019-06-20T05:38:28.226Z,6.45
2019-06-20T05:40:57.095Z,6.10
2019-06-20T05:43:25.802Z,6.58
2019-06-20T05:46:08.289Z,6.00
2019-06-20T05:48:25.403Z,5.95
2019-06-20T05:50:55.643Z,5.25
2019-06-20T05:53:24.212Z,5.20
2019-06-20T05:55:52.915Z,5.90
2019-06-20T05:58:21.543Z,5.42
2019-06-20T06:00:50.163Z,5.37
2019-06-20T06:03:19.014Z,4.92
2019-06-20T06:05:47.848Z,4.85
2019-06-20T06:08:16.553Z,4.60
2019-06-20T06:10:45.094Z,4.62
2019-06-20T06:13:13.920Z,4.83
2019-06-20T06:15:42.589Z,4.80
2019-06-20T06:18:11.282Z,4.85
2019-06-20T06:20:39.873Z,4.60
2019-06-20T06:23:08.439Z,4.80
2019-06-20T06:25:38.361Z,4.10
2019-06-20T06:28:07.081Z,4.00
2019-06-20T06:30:35.608Z,4.25
2019-06-20T06:33:04.389Z,4.03
2019-06-20T06:35:33.112Z,4.15
2019-06-20T06:38:01.813Z,4.33
2019-06-20T06:40:30.680Z,3.90
2019-06-20T06:42:59.253Z,3.58
2019-06-20T06:45:27.856Z,3.67
2019-06-20T06:47:56.850Z,3.95
2019-06-20T06:50:25.519Z,3.65
2019-06-20T06:52:54.108Z,4.00
2019-06-20T06:55:27.715Z,3.67
2019-06-20T06:57:55.980Z,3.98
2019-06-20T07:00:25.105Z,4.75
2019-06-20T07:02:54.286Z,4.78
2019-06-20T07:05:22.958Z,4.65
2019-06-20T07:07:51.542Z,4.72
2019-06-20T07:10:20.314Z,4.60
2019-06-20T07:12:49.158Z,4.83
2019-06-20T07:15:17.804Z,4.67
2019-06-20T07:17:46.401Z,4.53
2019-06-20T07:20:15.415Z,3.80
2019-06-20T07:22:44.372Z,4.35
2019-06-20T07:25:12.954Z,4.10
2019-06-20T07:27:41.635Z,3.70
2019-06-20T07:30:11.724Z,4.70
2019-06-20T07:32:40.347Z,4.25
2019-06-20T07:35:10.348Z,4.15
2019-06-20T07:37:39.079Z,4.83
2019-06-20T07:40:08.041Z,4.33
2019-06-20T07:42:36.748Z,4.53
2019-06-20T07:45:06.746Z,4.00
2019-06-20T07:47:35.415Z,3.80
2019-06-20T07:50:05.766Z,3.92
2019-06-20T07:52:34.315Z,3.85
2019-06-20T07:55:02.997Z,3.90
2019-06-20T07:57:31.692Z,3.65
2019-06-20T08:00:00.490Z,3.77
2019-06-20T08:02:29.208Z,3.45
2019-06-20T08:04:57.866Z,3.90
2019-06-20T08:07:26.547Z,3.50
2019-06-20T08:09:55.135Z,3.40
2019-06-20T08:12:23.844Z,3.50
2019-06-20T08:14:52.606Z,4.03
2019-06-20T08:17:34.847Z,4.10
2019-06-20T08:19:51.385Z,3.87
2019-06-20T08:22:20.200Z,3.50
2019-06-20T08:24:48.800Z,3.55
2019-06-20T08:27:18.902Z,3.80
2019-06-20T08:29:47.543Z,3.70
2019-06-20T08:32:16.388Z,4.28
2019-06-20T08:34:45.063Z,4.12
2019-06-20T08:37:13.636Z,3.65
2019-06-20T08:39:42.211Z,3.47
2019-06-20T08:42:10.909Z,3.52
2019-06-20T08:44:39.516Z,4.67
2019-06-20T08:47:08.212Z,3.85
2019-06-20T08:49:36.760Z,3.62
2019-06-20T08:52:05.580Z,3.60
2019-06-20T08:54:34.529Z,3.45
2019-06-20T08:57:04.059Z,3.62
2019-06-20T08:59:33.314Z,3.55
2019-06-20T09:04:31.447Z,3.22
2019-06-20T09:07:00.635Z,3.00
2019-06-20T09:09:29.719Z,2.83
2019-06-20T09:11:58.674Z,3.08
2019-06-20T09:14:27.500Z,3.00
2019-06-20T09:16:56.997Z,3.47
2019-06-20T09:19:25.615Z,3.27
2019-06-20T09:21:55.682Z,3.20
2019-06-20T09:24:24.815Z,3.22
2019-06-20T09:26:53.906Z,3.05
2019-06-20T09:29:22.617Z,3.35
2019-06-20T09:31:52.528Z,3.40
2019-06-20T09:34:21.694Z,2.98
2019-06-20T09:36:51.922Z,3.00
2019-06-20T09:39:20.584Z,3.00
2019-06-20T09:41:51.085Z,2.80
2019-06-20T09:44:19.756Z,2.85
2019-06-20T09:46:51.180Z,2.85
2019-06-20T09:49:19.948Z,2.85
2019-06-20T09:51:49.135Z,2.90
2019-06-20T09:54:18.753Z,3.10
2019-06-20T09:56:50.269Z,3.33
2019-06-20T09:59:27.582Z,2.72
2019-06-20T10:01:49.476Z,2.80
2019-06-20T10:04:21.526Z,3.10
2019-06-20T10:06:50.155Z,2.77
2019-06-20T10:09:18.982Z,2.65
2019-06-20T10:11:47.969Z,2.83
2019-06-20T10:14:16.936Z,3.10
2019-06-20T10:16:49.234Z,2.62
2019-06-20T10:19:15.956Z,3.00
2019-06-20T10:21:46.210Z,2.52
2019-06-20T10:24:15.070Z,2.62
2019-06-20T10:26:45.080Z,3.10
2019-06-20T10:29:13.970Z,3.12
2019-06-20T10:31:42.667Z,2.67
2019-06-20T10:34:11.357Z,2.92
2019-06-20T10:36:40.142Z,2.95
2019-06-20T10:39:10.944Z,3.65
2019-06-20T10:41:39.582Z,2.87
2019-06-20T10:44:08.357Z,2.77
2019-06-20T10:46:36.925Z,2.92
2019-06-20T10:49:06.100Z,2.77
2019-06-20T10:51:36.749Z,2.70
2019-06-20T10:54:06.444Z,2.85
2019-06-20T10:56:35.251Z,2.98
2019-06-20T10:59:03.933Z,2.83
2019-06-20T11:01:32.903Z,3.12
2019-06-20T11:04:03.773Z,3.10
2019-06-20T11:06:32.536Z,2.75
2019-06-20T11:09:01.354Z,2.60
2019-06-20T11:11:29.895Z,2.67
2019-06-20T11:13:58.591Z,3.10
2019-06-20T11:16:27.200Z,2.90
2019-06-20T11:18:55.769Z,2.75
2019-06-20T11:21:24.477Z,2.80
2019-06-20T11:23:53.171Z,2.87
2019-06-20T11:26:22.203Z,3.02
2019-06-20T11:28:52.351Z,4.00
2019-06-20T11:31:21.285Z,3.02
2019-06-20T11:33:50.038Z,2.83
2019-06-20T11:36:18.936Z,3.40
2019-06-20T11:38:49.171Z,3.20
2019-06-20T11:41:19.108Z,3.02
2019-06-20T11:43:48.276Z,3.30
2019-06-20T11:46:17.416Z,2.85
2019-06-20T11:48:47.091Z,3.25
2019-06-20T11:51:16.693Z,2.92
2019-06-20T11:53:45.462Z,3.90
2019-06-20T11:56:17.383Z,2.70
2019-06-20T11:58:47.232Z,3.25
2019-06-20T12:01:16.282Z,3.00
2019-06-20T12:03:45.055Z,3.30
2019-06-20T12:06:14.090Z,3.05
2019-06-20T12:08:45.164Z,3.67
2019-06-20T12:11:14.018Z,3.22
2019-06-20T12:13:44.287Z,3.30
2019-06-20T12:16:13.445Z,3.33
2019-06-20T12:18:43.115Z,4.53
2019-06-20T12:21:14.836Z,3.37
2019-06-20T12:23:44.901Z,4.70
2019-06-20T12:26:13.938Z,2.60
2019-06-20T12:28:44.641Z,3.05
2019-06-20T12:31:19.536Z,3.30
2019-06-20T12:33:45.045Z,3.02
2019-06-20T12:36:14.202Z,3.40
2019-06-20T12:38:43.337Z,3.22
2019-06-20T12:41:12.418Z,3.17
2019-06-20T12:43:41.864Z,3.17
2019-06-20T12:46:14.189Z,3.35
2019-06-20T12:48:43.068Z,4.60
2019-06-20T12:51:12.458Z,3.30
2019-06-20T12:53:41.979Z,3.80
2019-06-20T12:56:11.883Z,3.30
2019-06-20T12:58:41.058Z,4.20
2019-06-20T13:01:11.008Z,3.90
2019-06-20T13:03:40.414Z,3.55
2019-06-20T13:06:10.047Z,3.72
2019-06-20T13:08:40.294Z,3.20
2019-06-20T13:11:09.264Z,3.30
2019-06-20T13:13:39.384Z,3.22
2019-06-20T13:16:09.143Z,19.27
2019-06-20T13:18:42.723Z,4.90
2019-06-20T13:21:10.612Z,4.65
2019-06-20T13:23:40.224Z,4.70
2019-06-20T13:26:09.918Z,4.15
2019-06-20T13:28:54.002Z,4.28
2019-06-20T13:31:09.555Z,4.78
2019-06-20T13:33:39.619Z,4.90
2019-06-20T13:36:09.384Z,4.53
2019-06-20T13:38:39.593Z,5.10
2019-06-20T13:41:09.031Z,4.53
2019-06-20T13:43:38.214Z,4.15
2019-06-20T13:46:07.109Z,4.10
2019-06-20T13:48:36.088Z,3.50
2019-06-20T13:51:05.236Z,14.07
2019-06-20T13:53:36.717Z,4.03
2019-06-20T13:56:05.570Z,3.75
2019-06-20T13:58:34.417Z,4.30
2019-06-20T14:01:03.500Z,3.92
2019-06-20T14:03:32.718Z,4.22
2019-06-20T14:06:01.479Z,4.12
2019-06-20T14:08:30.422Z,3.80
2019-06-20T14:10:59.627Z,3.90
2019-06-20T14:13:29.460Z,3.98
2019-06-20T14:15:58.499Z,6.12
2019-06-20T14:18:27.623Z,4.28
2019-06-20T14:20:56.764Z,4.33
2019-06-20T14:23:25.661Z,4.00
2019-06-20T14:25:56.613Z,3.98
2019-06-20T14:28:25.898Z,3.80
2019-06-20T14:30:54.724Z,4.05
2019-06-20T14:33:24.310Z,4.30
2019-06-20T14:35:54.765Z,3.92
2019-06-20T14:38:23.793Z,3.60
2019-06-20T14:40:52.836Z,3.98
2019-06-20T14:43:22.153Z,3.83
2019-06-20T14:45:50.885Z,3.20
2019-06-20T14:48:21.023Z,3.95
2019-06-20T14:50:51.242Z,3.12
2019-06-20T14:53:20.478Z,3.15
2019-06-20T14:55:49.753Z,2.87
2019-06-20T14:58:18.636Z,3.00
2019-06-20T15:00:48.173Z,3.92
2019-06-20T15:03:17.343Z,2.80
2019-06-20T15:05:46.589Z,2.95
2019-06-20T15:08:15.952Z,2.95
2019-06-20T15:10:46.566Z,2.65
2019-06-20T15:13:15.456Z,3.30
2019-06-20T15:15:45.919Z,3.10
2019-06-20T15:18:15.138Z,3.20
2019-06-20T15:20:45.215Z,2.72
2019-06-20T15:23:14.514Z,3.80
2019-06-20T15:25:43.474Z,2.83
2019-06-20T15:28:12.575Z,4.12
2019-06-20T15:30:41.478Z,3.80
2019-06-20T15:33:10.684Z,3.17
2019-06-20T15:35:39.479Z,2.90
2019-06-20T15:38:08.339Z,3.27
2019-06-20T15:40:37.231Z,2.72
2019-06-20T15:43:06.352Z,3.52
2019-06-20T15:45:35.551Z,3.30
2019-06-20T15:48:04.535Z,3.15
2019-06-20T15:50:33.325Z,2.92
2019-06-20T15:53:02.104Z,3.55
2019-06-20T15:55:31.820Z,3.22
2019-06-20T15:58:00.598Z,3.33
2019-06-20T16:00:29.584Z,3.92
2019-06-20T16:03:09.291Z,3.22
2019-06-20T16:05:28.696Z,3.17
2019-06-20T16:07:57.410Z,3.45
2019-06-20T16:10:26.075Z,4.37
2019-06-20T16:12:56.790Z,3.58
2019-06-20T16:15:25.583Z,4.03
2019-06-20T16:17:54.535Z,4.03
2019-06-20T16:20:23.373Z,3.90
2019-06-20T16:22:52.465Z,3.85
2019-06-20T16:25:22.375Z,3.67
2019-06-20T16:27:51.760Z,3.45
2019-06-20T16:30:21.876Z,4.20
2019-06-20T16:32:52.736Z,3.40
2019-06-20T16:35:22.003Z,3.40
2019-06-20T16:37:51.051Z,3.27
2019-06-20T16:40:36.626Z,3.37
2019-06-20T16:43:05.478Z,3.02
2019-06-20T16:45:36.867Z,3.65
2019-06-20T16:48:05.638Z,3.30
2019-06-20T16:50:34.580Z,3.02
2019-06-20T16:53:03.512Z,3.20
2019-06-20T16:55:32.612Z,3.02
2019-06-20T16:58:01.821Z,3.37
2019-06-20T17:00:31.219Z,3.20
2019-06-20T17:03:00.004Z,3.50
2019-06-20T17:05:29.614Z,3.30
2019-06-20T17:08:01.527Z,4.33
2019-06-20T17:10:30.421Z,3.35
2019-06-20T17:12:59.706Z,3.62
2019-06-20T17:15:29.110Z,4.28
2019-06-20T17:17:59.962Z,3.40
2019-06-20T17:20:29.885Z,3.70
2019-06-20T17:22:58.910Z,3.37
2019-06-20T17:25:28.001Z,3.50
2019-06-20T17:27:56.912Z,3.27
2019-06-20T17:30:27.376Z,3.92
2019-06-20T17:32:56.544Z,3.90
2019-06-20T17:35:25.636Z,3.90
2019-06-20T17:37:54.411Z,3.33
2019-06-20T17:40:23.550Z,3.22
2019-06-20T17:42:52.850Z,3.20
2019-06-20T17:45:22.115Z,3.35
2019-06-20T17:47:51.179Z,2.75
2019-06-20T17:50:20.469Z,3.00
2019-06-20T17:52:49.702Z,2.90
2019-06-20T17:55:19.792Z,3.00
2019-06-20T17:57:48.910Z,3.72
2019-06-20T18:00:19.070Z,4.12
2019-06-20T18:02:48.144Z,4.03
2019-06-20T18:05:17.642Z,3.70
2019-06-20T18:07:46.730Z,4.28
2019-06-20T18:10:16.425Z,4.62
2019-06-20T18:12:45.552Z,4.90
2019-06-20T18:15:14.713Z,5.78
2019-06-20T18:17:43.663Z,4.65
2019-06-20T18:20:13.228Z,4.50
2019-06-20T18:22:43.452Z,4.33
2019-06-20T18:25:12.789Z,4.50
2019-06-20T18:27:42.184Z,4.67
2019-06-20T18:30:11.292Z,4.78
2019-06-20T18:32:42.262Z,4.50
2019-06-20T18:35:11.383Z,3.70
2019-06-20T18:37:40.260Z,4.20
2019-06-20T18:40:10.686Z,4.37
2019-06-20T18:42:40.000Z,3.95
2019-06-20T18:45:09.875Z,4.10
2019-06-20T18:47:39.131Z,4.50
2019-06-20T18:50:08.433Z,4.30
2019-06-20T18:52:51.064Z,4.35
2019-06-20T18:55:09.138Z,4.95
2019-06-20T18:57:37.973Z,3.72
2019-06-20T19:00:07.787Z,3.55
2019-06-20T19:02:36.947Z,3.12
2019-06-20T19:05:07.142Z,3.27
2019-06-20T19:07:36.099Z,3.02
2019-06-20T19:10:06.897Z,3.20
2019-06-20T19:12:36.082Z,3.02
2019-06-20T19:15:08.334Z,3.27
2019-06-20T19:17:48.617Z,2.80
2019-06-20T19:20:18.348Z,2.80
2019-06-20T19:22:47.704Z,3.12
2019-06-20T19:25:16.924Z,3.10
2019-06-20T19:27:47.096Z,3.45
2019-06-20T19:30:16.890Z,3.12
2019-06-20T19:32:46.786Z,3.12
2019-06-20T19:35:15.721Z,3.55
2019-06-20T19:37:45.510Z,3.10
2019-06-20T19:40:15.572Z,3.58
2019-06-20T19:42:44.783Z,2.98
2019-06-20T19:45:15.036Z,3.25
2019-06-20T19:47:44.532Z,3.00
2019-06-20T19:50:13.312Z,3.02
2019-06-20T19:52:43.132Z,3.25
2019-06-20T19:55:12.511Z,4.90
2019-06-20T19:57:41.592Z,4.00
2019-06-20T20:00:11.948Z,4.55
2019-06-20T20:02:41.816Z,4.30
2019-06-20T20:05:18.998Z,3.52
2019-06-20T20:07:44.501Z,3.60
2019-06-20T20:10:14.866Z,4.15
2019-06-20T20:12:43.943Z,3.80
2019-06-20T20:15:14.233Z,3.25
2019-06-20T20:17:43.598Z,3.22
2019-06-20T20:20:13.090Z,3.33
2019-06-20T20:22:42.054Z,3.58
2019-06-20T20:25:11.790Z,3.17
2019-06-20T20:27:42.586Z,2.98
2019-06-20T20:30:13.242Z,2.98
2019-06-20T20:32:42.898Z,2.95
2019-06-20T20:35:12.099Z,2.55
2019-06-20T20:37:41.881Z,2.87
2019-06-20T20:40:12.312Z,2.70
2019-06-20T20:42:41.630Z,2.95
2019-06-20T20:45:11.146Z,2.70
2019-06-20T20:47:41.836Z,3.08
2019-06-20T20:50:11.460Z,2.50
2019-06-20T20:52:41.064Z,2.90
2019-06-20T20:55:12.092Z,2.70
2019-06-20T20:57:41.212Z,2.67
2019-06-20T21:00:12.465Z,2.92
2019-06-20T21:02:41.417Z,2.70
2019-06-20T21:05:10.128Z,3.20
2019-06-20T21:07:51.111Z,2.90
2019-06-20T21:10:19.930Z,2.00
2019-06-20T21:12:50.676Z,3.30
2019-06-20T21:15:21.460Z,2.60
2019-06-20T21:17:55.627Z,2.87
2019-06-20T21:20:24.263Z,3.10
2019-06-20T21:22:53.050Z,3.37
2019-06-20T21:25:22.638Z,2.87
2019-06-20T21:27:52.807Z,3.00
2019-06-20T21:30:21.338Z,3.92
2019-06-20T21:32:52.039Z,4.30
2019-06-20T21:35:20.840Z,3.90
2019-06-20T21:37:50.583Z,3.40
2019-06-20T21:40:20.730Z,3.10
2019-06-20T21:42:49.409Z,3.25
2019-06-20T21:45:19.209Z,3.60
2019-06-20T21:47:47.896Z,3.15
2019-06-20T21:50:19.789Z,3.20
2019-06-20T21:52:48.331Z,3.40
2019-06-20T21:55:16.901Z,3.80
2019-06-20T21:57:45.719Z,3.40
2019-06-20T22:00:16.820Z,3.17
2019-06-20T22:02:47.226Z,3.35
2019-06-20T22:05:16.960Z,2.90
2019-06-20T22:07:46.224Z,3.37
2019-06-20T22:10:19.267Z,3.83
2019-06-20T22:12:50.620Z,3.37
2019-06-20T22:15:19.589Z,3.37
2019-06-20T22:17:48.400Z,3.30
2019-06-20T22:20:17.315Z,3.35
2019-06-20T22:22:47.701Z,3.80
2019-06-20T22:25:17.868Z,3.62
2019-06-20T22:27:47.146Z,4.65
2019-06-20T22:30:23.137Z,3.90
2019-06-20T22:32:54.046Z,3.65
2019-06-20T22:35:22.558Z,4.15
2019-06-20T22:37:52.427Z,4.40
2019-06-20T22:40:20.970Z,3.98
2019-06-20T22:42:50.473Z,4.53
2019-06-20T22:45:19.060Z,6.37
2019-06-20T22:47:47.941Z,5.87
2019-06-20T22:50:16.776Z,4.35
2019-06-20T22:52:45.536Z,4.00
2019-06-20T22:55:15.575Z,4.87
2019-06-20T22:57:44.387Z,5.08
2019-06-20T23:00:16.724Z,4.00
2019-06-20T23:02:45.813Z,3.77
2019-06-20T23:05:16.407Z,4.37
2019-06-20T23:07:44.867Z,3.77
2019-06-20T23:10:13.491Z,3.22
2019-06-20T23:12:42.183Z,3.60
2019-06-20T23:15:11.308Z,3.30
2019-06-20T23:17:40.987Z,3.25
2019-06-20T23:20:10.249Z,3.22
2019-06-20T23:22:38.862Z,3.40
2019-06-20T23:25:07.865Z,3.20
2019-06-20T23:27:36.444Z,3.27
2019-06-20T23:30:06.794Z,3.33
2019-06-20T23:32:35.475Z,3.22
2019-06-20T23:35:04.745Z,3.60
2019-06-20T23:37:33.342Z,3.75
2019-06-20T23:40:02.183Z,3.42
2019-06-20T23:42:30.712Z,3.50
2019-06-20T23:44:59.289Z,3.30
2019-06-20T23:47:28.203Z,3.60
2019-06-20T23:49:56.745Z,3.30
2019-06-20T23:52:26.976Z,3.25
2019-06-20T23:54:55.551Z,3.27
2019-06-20T23:57:24.128Z,2.98
2019-06-20T23:59:52.637Z,3.25
